createdAt,value
2023-05-01T00:00:27.222Z,10.41
2023-05-01T00:01:27.251Z,10.37
2023-05-01T00:02:27.318Z,10.37
2023-05-01T00:03:27.445Z,10.34
2023-05-01T00:04:27.230Z,10.31
2023-05-01T00:05:27.200Z,10.33
2023-05-01T00:06:27.217Z,10.31
2023-05-01T00:07:27.185Z,10.28
2023-05-01T00:08:27.147Z,10.26
2023-05-01T00:09:27.143Z,10.25
2023-05-01T00:10:27.149Z,10.26
2023-05-01T00:11:27.132Z,10.26
2023-05-01T00:12:27.125Z,10.25
2023-05-01T00:13:27.108Z,10.26
2023-05-01T00:14:27.080Z,10.25
2023-05-01T00:15:27.076Z,10.25
2023-05-01T00:16:27.143Z,10.25
2023-05-01T00:17:27.139Z,10.26
2023-05-01T00:18:27.056Z,10.23
2023-05-01T00:19:27.132Z,10.25
2023-05-01T00:20:27.040Z,10.23
2023-05-01T00:21:27.021Z,10.20
2023-05-01T00:22:27.011Z,10.16
2023-05-01T00:23:27.023Z,10.15
2023-05-01T00:24:26.991Z,10.15
2023-05-01T00:25:26.991Z,10.16
2023-05-01T00:26:26.974Z,10.13
2023-05-01T00:27:26.961Z,10.09
2023-05-01T00:28:26.963Z,10.04
2023-05-01T00:29:26.943Z,10.04
2023-05-01T00:30:26.924Z,10.01
2023-05-01T00:31:26.982Z,9.95
2023-05-01T00:32:27.000Z,9.89
2023-05-01T00:33:26.924Z,9.86
2023-05-01T00:34:26.907Z,9.82
2023-05-01T00:35:26.890Z,9.74
2023-05-01T00:36:26.854Z,9.73
2023-05-01T00:37:26.864Z,9.72
2023-05-01T00:38:26.845Z,9.68
2023-05-01T00:39:26.872Z,9.66
2023-05-01T00:40:26.835Z,9.62
2023-05-01T00:41:26.827Z,9.61
2023-05-01T00:42:26.807Z,9.61
2023-05-01T00:43:26.796Z,9.64
2023-05-01T00:44:26.804Z,9.64
2023-05-01T00:45:26.826Z,9.64
2023-05-01T00:46:26.899Z,9.65
2023-05-01T00:47:26.867Z,9.65
2023-05-01T00:48:26.752Z,9.66
2023-05-01T00:49:26.743Z,9.66
2023-05-01T00:50:26.732Z,9.64
2023-05-01T00:51:26.772Z,9.59
2023-05-01T00:52:26.693Z,9.62
2023-05-01T00:53:26.697Z,9.62
2023-05-01T00:54:26.692Z,9.64
2023-05-01T00:55:26.681Z,9.62
2023-05-01T00:56:26.681Z,9.62
2023-05-01T00:57:26.682Z,9.62
2023-05-01T00:58:26.687Z,9.65
2023-05-01T00:59:26.629Z,9.61
2023-05-01T01:00:26.634Z,9.62
2023-05-01T01:01:26.630Z,9.61
2023-05-01T01:02:26.627Z,9.56
2023-05-01T01:03:26.631Z,9.55
2023-05-01T01:04:26.635Z,9.54
2023-05-01T01:05:26.566Z,9.54
2023-05-01T01:06:26.593Z,9.54
2023-05-01T01:07:26.561Z,9.55
2023-05-01T01:08:26.547Z,9.54
2023-05-01T01:09:26.597Z,9.59
2023-05-01T01:10:26.545Z,9.62
2023-05-01T01:11:26.535Z,9.64
2023-05-01T01:12:26.749Z,9.65
2023-05-01T01:13:26.507Z,9.64
2023-05-01T01:14:26.491Z,9.65
2023-05-01T01:15:26.514Z,9.65
2023-05-01T01:16:26.484Z,9.65
2023-05-01T01:17:26.537Z,9.64
2023-05-01T01:18:26.642Z,9.62
2023-05-01T01:19:26.685Z,9.58
2023-05-01T01:20:26.426Z,9.56
2023-05-01T01:21:26.551Z,9.55
2023-05-01T01:22:26.415Z,9.54
2023-05-01T01:23:26.396Z,9.54
2023-05-01T01:24:26.386Z,9.56
2023-05-01T01:25:26.411Z,9.54
2023-05-01T01:26:26.375Z,9.50
2023-05-01T01:27:26.393Z,9.50
2023-05-01T01:28:26.381Z,9.50
2023-05-01T01:29:26.343Z,9.48
2023-05-01T01:30:26.326Z,9.50
2023-05-01T01:31:26.476Z,9.48
2023-05-01T01:32:26.302Z,9.50
2023-05-01T01:33:26.281Z,9.55
2023-05-01T01:34:26.269Z,9.55
2023-05-01T01:35:26.280Z,9.47
2023-05-01T01:36:26.279Z,9.44
2023-05-01T01:37:26.290Z,9.39
2023-05-01T01:38:26.257Z,9.34
2023-05-01T01:39:26.243Z,9.36
2023-05-01T01:40:26.223Z,9.34
2023-05-01T01:41:26.218Z,9.36
2023-05-01T01:42:26.188Z,9.32
2023-05-01T01:43:26.238Z,9.25
2023-05-01T01:44:26.177Z,9.13
2023-05-01T01:45:26.185Z,9.08
2023-05-01T01:46:26.238Z,9.06
2023-05-01T01:47:26.147Z,9.10
2023-05-01T01:48:26.149Z,9.11
2023-05-01T01:49:26.223Z,9.11
2023-05-01T01:50:26.183Z,9.10
2023-05-01T01:51:26.109Z,9.08
2023-05-01T01:52:26.099Z,9.02
2023-05-01T01:53:26.100Z,8.99
2023-05-01T01:54:26.087Z,8.95
2023-05-01T01:55:26.070Z,8.92
2023-05-01T01:56:26.089Z,8.89
2023-05-01T01:57:26.049Z,8.88
2023-05-01T01:58:26.040Z,8.87
2023-05-01T01:59:26.029Z,8.88
2023-05-01T02:00:26.010Z,8.91
2023-05-01T02:01:26.073Z,8.91
2023-05-01T02:02:26.039Z,8.89
2023-05-01T02:03:26.056Z,8.91
2023-05-01T02:04:25.987Z,8.92
2023-05-01T02:05:26.022Z,8.94
2023-05-01T02:06:26.030Z,8.91
2023-05-01T02:07:25.996Z,8.87
2023-05-01T02:08:25.951Z,8.87
2023-05-01T02:09:25.936Z,8.87
2023-05-01T02:10:25.955Z,8.85
2023-05-01T02:11:25.914Z,8.85
2023-05-01T02:12:25.906Z,8.85
2023-05-01T02:13:25.908Z,8.84
2023-05-01T02:14:25.886Z,8.82
2023-05-01T02:15:25.862Z,8.84
2023-05-01T02:16:25.859Z,8.81
2023-05-01T02:17:25.861Z,8.78
2023-05-01T02:18:25.849Z,8.73
2023-05-01T02:19:25.846Z,8.70
2023-05-01T02:20:25.837Z,8.70
2023-05-01T02:21:25.842Z,8.71
2023-05-01T02:22:25.809Z,8.73
2023-05-01T02:23:25.792Z,8.73
2023-05-01T02:24:25.813Z,8.70
2023-05-01T02:25:26.601Z,8.70
2023-05-01T02:26:25.772Z,8.70
2023-05-01T02:27:25.782Z,8.73
2023-05-01T02:28:25.749Z,8.69
2023-05-01T02:29:25.734Z,8.69
2023-05-01T02:30:25.732Z,8.67
2023-05-01T02:31:25.728Z,8.63
2023-05-01T02:32:25.718Z,8.63
2023-05-01T02:33:25.691Z,8.61
2023-05-01T02:34:25.669Z,8.58
2023-05-01T02:35:25.652Z,8.60
2023-05-01T02:36:25.706Z,8.55
2023-05-01T02:37:25.665Z,8.52
2023-05-01T02:38:25.654Z,8.55
2023-05-01T02:39:25.641Z,8.56
2023-05-01T02:40:25.628Z,8.55
2023-05-01T02:41:25.641Z,8.55
2023-05-01T02:42:25.638Z,8.55
2023-05-01T02:43:25.587Z,8.56
2023-05-01T02:44:25.588Z,8.55
2023-05-01T02:45:25.613Z,8.55
2023-05-01T02:46:25.679Z,8.53
2023-05-01T02:47:26.080Z,8.52
2023-05-01T02:48:25.551Z,8.52
2023-05-01T02:49:25.527Z,8.52
2023-05-01T02:50:25.535Z,8.53
2023-05-01T02:51:25.529Z,8.53
2023-05-01T02:52:25.508Z,8.49
2023-05-01T02:53:25.515Z,8.45
2023-05-01T02:54:25.474Z,8.46
2023-05-01T02:55:25.468Z,8.48
2023-05-01T02:56:25.457Z,8.45
2023-05-01T02:57:25.447Z,8.45
2023-05-01T02:58:25.474Z,8.42
2023-05-01T02:59:25.410Z,8.37
2023-05-01T03:00:25.431Z,8.37
2023-05-01T03:01:25.465Z,8.37
2023-05-01T03:02:25.405Z,8.36
2023-05-01T03:03:25.425Z,8.37
2023-05-01T03:04:25.433Z,8.36
2023-05-01T03:05:25.364Z,8.34
2023-05-01T03:06:25.439Z,8.36
2023-05-01T03:07:25.363Z,8.38
2023-05-01T03:08:25.339Z,8.38
2023-05-01T03:09:25.316Z,8.41
2023-05-01T03:10:25.341Z,8.41
2023-05-01T03:11:25.313Z,8.41
2023-05-01T03:12:25.298Z,8.41
2023-05-01T03:13:25.311Z,8.41
2023-05-01T03:14:25.278Z,8.41
2023-05-01T03:15:25.312Z,8.38
2023-05-01T03:16:25.290Z,8.36
2023-05-01T03:17:25.294Z,8.37
2023-05-01T03:18:25.253Z,8.36
2023-05-01T03:19:25.220Z,8.33
2023-05-01T03:20:25.854Z,8.33
2023-05-01T03:21:25.260Z,8.34
2023-05-01T03:22:25.201Z,8.33
2023-05-01T03:23:25.186Z,8.30
2023-05-01T03:24:25.176Z,8.28
2023-05-01T03:25:25.161Z,8.26
2023-05-01T03:26:25.157Z,8.23
2023-05-01T03:27:25.198Z,8.23
2023-05-01T03:28:25.145Z,8.20
2023-05-01T03:29:25.123Z,8.18
2023-05-01T03:30:25.123Z,8.18
2023-05-01T03:31:25.121Z,8.18
2023-05-01T03:32:25.345Z,8.16
2023-05-01T03:33:25.107Z,8.15
2023-05-01T03:34:25.071Z,8.16
2023-05-01T03:35:25.083Z,8.15
2023-05-01T03:36:25.035Z,8.15
2023-05-01T03:37:25.067Z,8.15
2023-05-01T03:38:25.035Z,8.12
2023-05-01T03:39:25.017Z,8.10
2023-05-01T03:40:25.031Z,8.13
2023-05-01T03:41:25.008Z,8.15
2023-05-01T03:42:25.006Z,8.18
2023-05-01T03:43:25.021Z,8.20
2023-05-01T03:44:24.962Z,8.24
2023-05-01T03:45:24.960Z,8.24
2023-05-01T03:46:24.961Z,8.23
2023-05-01T03:47:24.948Z,8.24
2023-05-01T03:48:25.340Z,8.24
2023-05-01T03:49:24.906Z,8.28
2023-05-01T03:50:24.916Z,8.28
2023-05-01T03:51:24.898Z,8.26
2023-05-01T03:52:24.903Z,8.26
2023-05-01T03:53:24.885Z,8.30
2023-05-01T03:54:24.907Z,8.30
2023-05-01T03:55:24.869Z,8.30
2023-05-01T03:56:24.842Z,8.31
2023-05-01T03:57:24.849Z,8.31
2023-05-01T03:58:24.818Z,8.33
2023-05-01T03:59:24.916Z,8.33
2023-05-01T04:00:24.816Z,8.36
2023-05-01T04:01:24.799Z,8.33
2023-05-01T04:02:24.857Z,8.33
2023-05-01T04:03:24.837Z,8.33
2023-05-01T04:04:24.877Z,8.34
2023-05-01T04:05:24.802Z,8.36
2023-05-01T04:06:24.813Z,8.38
2023-05-01T04:07:24.756Z,8.38
2023-05-01T04:08:24.734Z,8.41
2023-05-01T04:09:24.733Z,8.38
2023-05-01T04:10:24.719Z,8.42
2023-05-01T04:11:24.725Z,8.42
2023-05-01T04:12:24.688Z,8.46
2023-05-01T04:13:24.679Z,8.49
2023-05-01T04:14:24.773Z,8.49
2023-05-01T04:15:24.663Z,8.52
2023-05-01T04:16:25.089Z,8.53
2023-05-01T04:17:24.617Z,8.53
2023-05-01T04:18:24.617Z,8.53
2023-05-01T04:19:24.611Z,8.55
2023-05-01T04:20:24.637Z,8.60
2023-05-01T04:21:24.606Z,8.64
2023-05-01T04:22:24.623Z,8.63
2023-05-01T04:23:24.926Z,8.64
2023-05-01T04:24:24.581Z,8.67
2023-05-01T04:25:24.570Z,8.69
2023-05-01T04:26:24.553Z,8.70
2023-05-01T04:27:24.533Z,8.73
2023-05-01T04:28:24.545Z,8.74
2023-05-01T04:29:24.509Z,8.74
2023-05-01T04:30:24.488Z,8.74
2023-05-01T04:31:24.525Z,8.76
2023-05-01T04:32:24.524Z,8.74
2023-05-01T04:33:24.466Z,8.74
2023-05-01T04:34:24.503Z,8.73
2023-05-01T04:35:24.448Z,8.71
2023-05-01T04:36:24.470Z,8.69
2023-05-01T04:37:24.452Z,8.67
2023-05-01T04:38:24.434Z,8.67
2023-05-01T04:39:24.419Z,8.63
2023-05-01T04:40:24.426Z,8.61
2023-05-01T04:41:24.404Z,8.61
2023-05-01T04:42:24.387Z,8.61
2023-05-01T04:43:24.368Z,8.56
2023-05-01T04:44:24.349Z,8.53
2023-05-01T04:45:24.343Z,8.55
2023-05-01T04:46:24.376Z,8.55
2023-05-01T04:47:24.317Z,8.56
2023-05-01T04:48:24.356Z,8.58
2023-05-01T04:49:24.322Z,8.56
2023-05-01T04:50:24.326Z,8.58
2023-05-01T04:51:24.322Z,8.58
2023-05-01T04:52:24.278Z,8.61
2023-05-01T04:53:24.257Z,8.63
2023-05-01T04:54:24.257Z,8.64
2023-05-01T04:55:24.246Z,8.67
2023-05-01T04:56:24.220Z,8.67
2023-05-01T04:57:24.242Z,8.66
2023-05-01T04:58:24.231Z,8.67
2023-05-01T04:59:24.192Z,8.70
2023-05-01T05:00:24.205Z,8.71
2023-05-01T05:01:24.226Z,8.76
2023-05-01T05:02:24.237Z,8.76
2023-05-01T05:03:24.278Z,8.79
2023-05-01T05:04:24.180Z,8.79
2023-05-01T05:05:24.157Z,8.78
2023-05-01T05:06:24.218Z,8.81
2023-05-01T05:07:24.157Z,8.81
2023-05-01T05:08:24.137Z,8.81
2023-05-01T05:09:24.119Z,8.84
2023-05-01T05:10:24.104Z,8.84
2023-05-01T05:11:24.084Z,8.85
2023-05-01T05:12:24.076Z,8.88
2023-05-01T05:13:24.053Z,8.92
2023-05-01T05:14:24.082Z,8.99
2023-05-01T05:15:24.056Z,9.00
2023-05-01T05:16:24.113Z,9.04
2023-05-01T05:17:24.036Z,9.10
2023-05-01T05:18:24.079Z,9.13
2023-05-01T05:19:24.039Z,9.16
2023-05-01T05:20:24.016Z,9.22
2023-05-01T05:21:23.980Z,9.26
2023-05-01T05:22:23.995Z,9.29
2023-05-01T05:23:23.982Z,9.34
2023-05-01T05:24:23.970Z,9.37
2023-05-01T05:25:23.989Z,9.40
2023-05-01T05:26:23.950Z,9.43
2023-05-01T05:27:23.922Z,9.46
2023-05-01T05:28:23.923Z,9.50
2023-05-01T05:29:23.902Z,9.55
2023-05-01T05:30:23.928Z,9.59
2023-05-01T05:31:23.930Z,9.62
2023-05-01T05:32:23.914Z,9.64
2023-05-01T05:33:23.846Z,9.66
2023-05-01T05:34:23.849Z,9.69
2023-05-01T05:35:23.841Z,9.72
2023-05-01T05:36:23.872Z,9.76
2023-05-01T05:37:23.826Z,9.79
2023-05-01T05:38:23.814Z,9.80
2023-05-01T05:39:23.836Z,9.83
2023-05-01T05:40:23.800Z,9.87
2023-05-01T05:41:23.801Z,9.86
2023-05-01T05:42:23.816Z,9.89
2023-05-01T05:43:26.040Z,9.92
2023-05-01T05:44:23.759Z,9.89
2023-05-01T05:45:23.769Z,9.94
2023-05-01T05:46:23.820Z,9.94
2023-05-01T05:47:23.740Z,9.95
2023-05-01T05:48:23.790Z,9.94
2023-05-01T05:49:23.690Z,9.94
2023-05-01T05:50:23.703Z,9.91
2023-05-01T05:51:23.673Z,9.91
2023-05-01T05:52:23.673Z,9.91
2023-05-01T05:53:25.736Z,9.89
2023-05-01T05:54:23.694Z,9.92
2023-05-01T05:55:23.644Z,9.89
2023-05-01T05:56:23.627Z,9.94
2023-05-01T05:57:23.613Z,9.91
2023-05-01T05:58:23.613Z,9.89
2023-05-01T05:59:23.582Z,9.89
2023-05-01T06:00:23.646Z,9.89
2023-05-01T06:01:23.574Z,9.86
2023-05-01T06:02:23.675Z,9.86
2023-05-01T06:03:23.775Z,9.82
2023-05-01T06:04:23.562Z,9.82
2023-05-01T06:05:23.576Z,9.79
2023-05-01T06:06:23.611Z,9.76
2023-05-01T06:07:23.538Z,9.77
2023-05-01T06:08:23.515Z,9.79
2023-05-01T06:09:23.507Z,9.79
2023-05-01T06:10:23.511Z,9.82
2023-05-01T06:11:23.492Z,9.86
2023-05-01T06:12:23.486Z,9.87
2023-05-01T06:13:23.445Z,9.95
2023-05-01T06:14:23.444Z,9.99
2023-05-01T06:15:23.434Z,10.10
2023-05-01T06:16:23.497Z,10.15
2023-05-01T06:17:23.449Z,10.20
2023-05-01T06:18:23.447Z,10.28
2023-05-01T06:19:23.390Z,10.34
2023-05-01T06:20:23.400Z,10.40
2023-05-01T06:21:23.375Z,10.44
2023-05-01T06:22:23.380Z,10.48
2023-05-01T06:23:23.417Z,10.56
2023-05-01T06:24:23.336Z,10.59
2023-05-01T06:25:23.336Z,10.61
2023-05-01T06:26:23.317Z,10.68
2023-05-01T06:27:23.308Z,10.71
2023-05-01T06:28:23.319Z,10.71
2023-05-01T06:29:23.336Z,10.75
2023-05-01T06:30:23.308Z,10.76
2023-05-01T06:31:23.291Z,10.81
2023-05-01T06:32:23.355Z,10.84
2023-05-01T06:33:23.264Z,10.90
2023-05-01T06:34:23.274Z,10.94
2023-05-01T06:35:23.242Z,10.97
2023-05-01T06:36:23.221Z,11.00
2023-05-01T06:37:23.215Z,11.05
2023-05-01T06:38:25.618Z,11.07
2023-05-01T06:39:23.178Z,11.10
2023-05-01T06:40:23.208Z,11.10
2023-05-01T06:41:23.177Z,11.12
2023-05-01T06:42:23.162Z,11.12
2023-05-01T06:43:23.150Z,11.14
2023-05-01T06:44:23.163Z,11.15
2023-05-01T06:45:23.140Z,11.22
2023-05-01T06:46:23.176Z,11.25
2023-05-01T06:47:23.156Z,11.29
2023-05-01T06:48:23.116Z,11.32
2023-05-01T06:49:23.099Z,11.36
2023-05-01T06:50:23.100Z,11.37
2023-05-01T06:51:23.078Z,11.43
2023-05-01T06:52:23.094Z,11.43
2023-05-01T06:53:23.044Z,11.47
2023-05-01T06:54:23.029Z,11.50
2023-05-01T06:55:23.020Z,11.54
2023-05-01T06:56:23.027Z,11.57
2023-05-01T06:57:23.026Z,11.60
2023-05-01T06:58:24.595Z,11.66
2023-05-01T06:59:22.994Z,11.68
2023-05-01T07:00:22.978Z,11.70
2023-05-01T07:01:23.331Z,11.70
2023-05-01T07:02:23.075Z,11.75
2023-05-01T07:03:23.060Z,11.73
2023-05-01T07:04:22.920Z,11.77
2023-05-01T07:05:22.923Z,11.80
2023-05-01T07:06:22.957Z,11.81
2023-05-01T07:07:22.933Z,11.83
2023-05-01T07:08:22.897Z,11.86
2023-05-01T07:09:22.913Z,11.86
2023-05-01T07:10:22.886Z,11.86
2023-05-01T07:11:22.864Z,11.87
2023-05-01T07:12:22.898Z,11.87
2023-05-01T07:13:22.883Z,11.88
2023-05-01T07:14:22.850Z,11.88
2023-05-01T07:15:22.837Z,11.91
2023-05-01T07:16:22.909Z,11.95
2023-05-01T07:17:22.826Z,11.99
2023-05-01T07:18:22.836Z,12.02
2023-05-01T07:19:22.814Z,12.06
2023-05-01T07:20:22.765Z,12.09
2023-05-01T07:21:22.755Z,12.13
2023-05-01T07:22:22.756Z,12.15
2023-05-01T07:23:22.736Z,12.20
2023-05-01T07:24:22.728Z,12.21
2023-05-01T07:25:22.775Z,12.22
2023-05-01T07:26:22.716Z,12.22
2023-05-01T07:27:22.721Z,12.25
2023-05-01T07:28:22.693Z,12.28
2023-05-01T07:29:22.675Z,12.29
2023-05-01T07:30:22.683Z,12.29
2023-05-01T07:31:22.869Z,12.31
2023-05-01T07:32:22.730Z,12.37
2023-05-01T07:33:22.727Z,12.39
2023-05-01T07:34:22.653Z,12.40
2023-05-01T07:35:22.630Z,12.39
2023-05-01T07:36:22.648Z,12.40
2023-05-01T07:37:22.627Z,12.42
2023-05-01T07:38:22.604Z,12.43
2023-05-01T07:39:22.600Z,12.45
2023-05-01T07:40:22.565Z,12.46
2023-05-01T07:41:22.573Z,12.47
2023-05-01T07:42:22.570Z,12.50
2023-05-01T07:43:22.557Z,12.53
2023-05-01T07:44:22.526Z,12.55
2023-05-01T07:45:22.523Z,12.54
2023-05-01T07:46:22.570Z,12.53
2023-05-01T07:47:22.534Z,12.53
2023-05-01T07:48:22.514Z,12.53
2023-05-01T07:49:22.496Z,12.55
2023-05-01T07:50:22.489Z,12.57
2023-05-01T07:51:22.473Z,12.60
2023-05-01T07:52:22.467Z,12.62
2023-05-01T07:53:22.468Z,12.65
2023-05-01T07:54:22.429Z,12.68
2023-05-01T07:55:22.436Z,12.72
2023-05-01T07:56:22.403Z,12.73
2023-05-01T07:57:22.397Z,12.76
2023-05-01T07:58:22.375Z,12.76
2023-05-01T07:59:22.423Z,12.79
2023-05-01T08:00:22.366Z,12.82
2023-05-01T08:01:22.379Z,12.85
2023-05-01T08:02:22.399Z,12.90
2023-05-01T08:03:22.530Z,12.93
2023-05-01T08:04:22.482Z,12.97
2023-05-01T08:05:22.331Z,13.01
2023-05-01T08:06:22.383Z,13.08
2023-05-01T08:07:22.307Z,13.12
2023-05-01T08:08:22.271Z,13.15
2023-05-01T08:09:22.300Z,13.19
2023-05-01T08:10:22.282Z,13.22
2023-05-01T08:11:22.257Z,13.23
2023-05-01T08:12:22.283Z,13.30
2023-05-01T08:13:22.255Z,13.31
2023-05-01T08:14:22.236Z,13.30
2023-05-01T08:15:22.232Z,13.30
2023-05-01T08:16:22.460Z,13.33
2023-05-01T08:17:22.252Z,13.38
2023-05-01T08:18:22.188Z,13.41
2023-05-01T08:19:22.179Z,13.42
2023-05-01T08:20:22.155Z,13.49
2023-05-01T08:21:22.153Z,13.53
2023-05-01T08:22:22.158Z,13.60
2023-05-01T08:23:22.134Z,13.68
2023-05-01T08:24:22.128Z,13.72
2023-05-01T08:25:22.119Z,13.78
2023-05-01T08:26:22.910Z,13.79
2023-05-01T08:27:22.097Z,13.86
2023-05-01T08:28:22.157Z,13.87
2023-05-01T08:29:22.096Z,13.87
2023-05-01T08:30:22.118Z,13.87
2023-05-01T08:31:22.121Z,13.89
2023-05-01T08:32:22.039Z,13.93
2023-05-01T08:33:22.076Z,13.97
2023-05-01T08:34:22.007Z,14.03
2023-05-01T08:35:22.040Z,14.04
2023-05-01T08:36:22.018Z,14.07
2023-05-01T08:37:21.994Z,13.99
2023-05-01T08:38:21.974Z,13.93
2023-05-01T08:39:22.376Z,13.89
2023-05-01T08:40:21.996Z,13.87
2023-05-01T08:41:21.975Z,13.86
2023-05-01T08:42:21.989Z,13.92
2023-05-01T08:43:21.951Z,13.93
2023-05-01T08:44:21.925Z,13.96
2023-05-01T08:45:21.950Z,13.99
2023-05-01T08:46:21.931Z,14.00
2023-05-01T08:47:21.938Z,14.05
2023-05-01T08:48:21.893Z,14.10
2023-05-01T08:49:21.890Z,14.11
2023-05-01T08:50:21.909Z,14.15
2023-05-01T08:51:21.934Z,14.18
2023-05-01T08:52:21.826Z,14.25
2023-05-01T08:53:21.825Z,14.23
2023-05-01T08:54:21.804Z,14.28
2023-05-01T08:55:21.796Z,14.30
2023-05-01T08:56:21.782Z,14.33
2023-05-01T08:57:21.813Z,14.36
2023-05-01T08:58:21.765Z,14.36
2023-05-01T08:59:21.752Z,14.36
2023-05-01T09:00:21.759Z,14.35
2023-05-01T09:01:21.862Z,14.36
2023-05-01T09:02:21.788Z,14.37
2023-05-01T09:03:21.873Z,14.43
2023-05-01T09:04:21.784Z,14.47
2023-05-01T09:05:21.701Z,14.47
2023-05-01T09:06:21.787Z,14.50
2023-05-01T09:07:21.686Z,14.50
2023-05-01T09:08:21.698Z,14.50
2023-05-01T09:09:21.676Z,14.50
2023-05-01T09:10:21.655Z,14.53
2023-05-01T09:11:21.654Z,14.53
2023-05-01T09:12:21.644Z,14.54
2023-05-01T09:13:21.654Z,14.53
2023-05-01T09:14:21.619Z,14.51
2023-05-01T09:15:21.628Z,14.51
2023-05-01T09:16:21.610Z,14.53
2023-05-01T09:17:21.616Z,14.53
2023-05-01T09:18:21.553Z,14.55
2023-05-01T09:19:21.570Z,14.58
2023-05-01T09:20:21.638Z,14.62
2023-05-01T09:21:21.528Z,14.63
2023-05-01T09:22:21.527Z,14.66
2023-05-01T09:23:21.524Z,14.68
2023-05-01T09:24:21.541Z,14.70
2023-05-01T09:25:21.517Z,14.69
2023-05-01T09:26:21.488Z,14.73
2023-05-01T09:27:21.485Z,14.73
2023-05-01T09:28:21.474Z,14.78
2023-05-01T09:29:21.470Z,14.82
2023-05-01T09:30:21.476Z,14.82
2023-05-01T09:31:21.554Z,14.84
2023-05-01T09:32:21.662Z,14.84
2023-05-01T09:33:21.437Z,14.85
2023-05-01T09:34:21.397Z,14.88
2023-05-01T09:35:21.385Z,14.89
2023-05-01T09:36:21.416Z,14.88
2023-05-01T09:37:21.385Z,14.89
2023-05-01T09:38:21.362Z,14.89
2023-05-01T09:39:21.354Z,14.88
2023-05-01T09:40:21.325Z,14.85
2023-05-01T09:41:21.338Z,14.84
2023-05-01T09:42:21.302Z,14.85
2023-05-01T09:43:21.305Z,14.84
2023-05-01T09:44:21.294Z,14.86
2023-05-01T09:45:21.290Z,14.86
2023-05-01T09:46:21.343Z,14.86
2023-05-01T09:47:21.307Z,14.86
2023-05-01T09:48:21.274Z,14.86
2023-05-01T09:49:21.264Z,14.85
2023-05-01T09:50:21.247Z,14.85
2023-05-01T09:51:21.258Z,14.86
2023-05-01T09:52:21.221Z,14.89
2023-05-01T09:53:21.228Z,14.89
2023-05-01T09:54:21.229Z,14.91
2023-05-01T09:55:21.888Z,14.89
2023-05-01T09:56:21.168Z,14.91
2023-05-01T09:57:21.162Z,14.91
2023-05-01T09:58:21.170Z,14.91
2023-05-01T09:59:21.163Z,14.92
2023-05-01T10:00:21.125Z,14.91
2023-05-01T10:01:21.139Z,14.91
2023-05-01T10:02:21.212Z,14.89
2023-05-01T10:03:21.182Z,14.91
2023-05-01T10:04:21.108Z,14.89
2023-05-01T10:05:21.094Z,14.89
2023-05-01T10:06:21.137Z,14.91
2023-05-01T10:07:21.080Z,14.89
2023-05-01T10:08:21.283Z,14.91
2023-05-01T10:09:21.041Z,14.89
2023-05-01T10:10:21.043Z,14.89
2023-05-01T10:11:21.037Z,14.89
2023-05-01T10:12:21.024Z,14.92
2023-05-01T10:13:21.010Z,14.94
2023-05-01T10:14:21.032Z,14.96
2023-05-01T10:15:26.153Z,14.97
2023-05-01T10:16:21.070Z,14.99
2023-05-01T10:17:21.159Z,15.00
2023-05-01T10:18:21.028Z,15.02
2023-05-01T10:19:20.988Z,15.02
2023-05-01T10:20:20.970Z,15.00
2023-05-01T10:21:20.916Z,15.00
2023-05-01T10:22:20.925Z,14.97
2023-05-01T10:23:20.903Z,14.94
2023-05-01T10:24:20.909Z,14.96
2023-05-01T10:25:20.909Z,14.96
2023-05-01T10:26:20.866Z,14.96
2023-05-01T10:27:20.854Z,14.96
2023-05-01T10:28:20.854Z,14.99
2023-05-01T10:29:20.867Z,14.99
2023-05-01T10:30:20.868Z,14.99
2023-05-01T10:31:20.890Z,15.03
2023-05-01T10:32:20.805Z,15.03
2023-05-01T10:33:20.856Z,15.06
2023-05-01T10:34:20.828Z,15.06
2023-05-01T10:35:20.791Z,15.09
2023-05-01T10:36:20.778Z,15.09
2023-05-01T10:37:20.745Z,15.07
2023-05-01T10:38:20.747Z,15.09
2023-05-01T10:39:20.736Z,15.09
2023-05-01T10:40:20.735Z,15.14
2023-05-01T10:41:20.725Z,15.15
2023-05-01T10:42:20.691Z,15.15
2023-05-01T10:43:20.689Z,15.18
2023-05-01T10:44:20.693Z,15.21
2023-05-01T10:45:20.674Z,15.21
2023-05-01T10:46:20.719Z,15.22
2023-05-01T10:47:20.699Z,15.24
2023-05-01T10:48:20.657Z,15.25
2023-05-01T10:49:20.632Z,15.25
2023-05-01T10:50:20.632Z,15.24
2023-05-01T10:51:20.729Z,15.25
2023-05-01T10:52:20.621Z,15.28
2023-05-01T10:53:20.589Z,15.31
2023-05-01T10:54:20.576Z,15.28
2023-05-01T10:55:20.553Z,15.31
2023-05-01T10:56:20.578Z,15.33
2023-05-01T10:57:20.566Z,15.31
2023-05-01T10:58:20.551Z,15.29
2023-05-01T10:59:20.512Z,15.31
2023-05-01T11:00:20.532Z,15.31
2023-05-01T11:01:20.554Z,15.31
2023-05-01T11:02:20.549Z,15.33
2023-05-01T11:03:20.530Z,15.33
2023-05-01T11:04:20.481Z,15.35
2023-05-01T11:05:32.173Z,15.36
2023-05-01T11:06:20.612Z,15.37
2023-05-01T11:07:20.590Z,15.36
2023-05-01T11:08:20.495Z,15.36
2023-05-01T11:09:20.424Z,15.36
2023-05-01T11:10:20.414Z,15.37
2023-05-01T11:11:20.422Z,15.37
2023-05-01T11:12:20.412Z,15.37
2023-05-01T11:13:20.385Z,15.36
2023-05-01T11:14:20.619Z,15.35
2023-05-01T11:15:20.371Z,15.36
2023-05-01T11:16:20.403Z,15.33
2023-05-01T11:17:20.332Z,15.35
2023-05-01T11:18:20.334Z,15.31
2023-05-01T11:19:20.331Z,15.28
2023-05-01T11:20:20.334Z,15.27
2023-05-01T11:21:20.289Z,15.21
2023-05-01T11:22:20.289Z,15.21
2023-05-01T11:23:20.277Z,15.22
2023-05-01T11:24:20.300Z,15.21
2023-05-01T11:25:20.277Z,15.19
2023-05-01T11:26:20.280Z,15.15
2023-05-01T11:27:20.249Z,15.10
2023-05-01T11:28:20.247Z,15.10
2023-05-01T11:29:20.224Z,15.10
2023-05-01T11:30:20.235Z,15.15
2023-05-01T11:31:20.387Z,15.17
2023-05-01T11:32:20.464Z,15.19
2023-05-01T11:33:20.217Z,15.24
2023-05-01T11:34:20.167Z,15.24
2023-05-01T11:35:20.148Z,15.28
2023-05-01T11:36:20.141Z,15.29
2023-05-01T11:37:20.141Z,15.33
2023-05-01T11:38:20.165Z,15.31
2023-05-01T11:39:20.128Z,15.31
2023-05-01T11:40:20.129Z,15.27
2023-05-01T11:41:20.351Z,15.27
2023-05-01T11:42:20.113Z,15.25
2023-05-01T11:43:20.151Z,15.27
2023-05-01T11:44:20.067Z,15.28
2023-05-01T11:45:20.035Z,15.28
2023-05-01T11:46:20.126Z,15.29
2023-05-01T11:47:20.085Z,15.28
2023-05-01T11:48:20.074Z,15.29
2023-05-01T11:49:20.046Z,15.29
2023-05-01T11:50:20.025Z,15.28
2023-05-01T11:51:19.999Z,15.27
2023-05-01T11:52:20.000Z,15.27
2023-05-01T11:53:19.979Z,15.25
2023-05-01T11:54:20.022Z,15.22
2023-05-01T11:55:19.963Z,15.19
2023-05-01T11:56:26.554Z,15.18
2023-05-01T11:57:19.933Z,15.18
2023-05-01T11:58:19.914Z,15.18
2023-05-01T11:59:19.905Z,15.18
2023-05-01T12:00:19.914Z,15.19
2023-05-01T12:01:19.881Z,15.22
2023-05-01T12:02:19.931Z,15.22
2023-05-01T12:03:20.118Z,15.24
2023-05-01T12:04:19.920Z,15.25
2023-05-01T12:05:19.896Z,15.27
2023-05-01T12:06:19.966Z,15.28
2023-05-01T12:07:19.851Z,15.27
2023-05-01T12:08:19.820Z,15.27
2023-05-01T12:09:19.810Z,15.27
2023-05-01T12:10:19.816Z,15.27
2023-05-01T12:11:19.819Z,15.27
2023-05-01T12:12:19.786Z,15.27
2023-05-01T12:13:19.781Z,15.28
2023-05-01T12:14:19.756Z,15.27
2023-05-01T12:15:19.741Z,15.27
2023-05-01T12:16:19.779Z,15.28
2023-05-01T12:17:19.874Z,15.28
2023-05-01T12:18:19.799Z,15.29
2023-05-01T12:19:21.641Z,15.31
2023-05-01T12:20:19.696Z,15.33
2023-05-01T12:21:19.670Z,15.33
2023-05-01T12:22:19.685Z,15.35
2023-05-01T12:23:19.686Z,15.35
2023-05-01T12:24:19.654Z,15.33
2023-05-01T12:25:19.662Z,15.35
2023-05-01T12:26:19.627Z,15.33
2023-05-01T12:27:19.619Z,15.31
2023-05-01T12:28:19.878Z,15.31
2023-05-01T12:29:19.616Z,15.33
2023-05-01T12:30:19.605Z,15.33
2023-05-01T12:31:19.653Z,15.33
2023-05-01T12:32:19.594Z,15.33
2023-05-01T12:33:19.652Z,15.31
2023-05-01T12:34:19.571Z,15.33
2023-05-01T12:35:19.554Z,15.31
2023-05-01T12:36:19.519Z,15.33
2023-05-01T12:37:19.531Z,15.29
2023-05-01T12:38:19.617Z,15.29
2023-05-01T12:39:19.498Z,15.27
2023-05-01T12:40:19.570Z,15.25
2023-05-01T12:41:19.485Z,15.27
2023-05-01T12:42:19.463Z,15.27
2023-05-01T12:43:19.479Z,15.27
2023-05-01T12:44:19.486Z,15.29
2023-05-01T12:45:19.455Z,15.28
2023-05-01T12:46:19.546Z,15.28
2023-05-01T12:47:19.444Z,15.29
2023-05-01T12:48:19.431Z,15.35
2023-05-01T12:49:19.391Z,15.35
2023-05-01T12:50:19.408Z,15.35
2023-05-01T12:51:19.375Z,15.33
2023-05-01T12:52:19.419Z,15.37
2023-05-01T12:53:19.355Z,15.37
2023-05-01T12:54:19.351Z,15.37
2023-05-01T12:55:19.332Z,15.37
2023-05-01T12:56:19.317Z,15.42
2023-05-01T12:57:19.318Z,15.42
2023-05-01T12:58:19.331Z,15.43
2023-05-01T12:59:19.277Z,15.44
2023-05-01T13:00:19.304Z,15.44
2023-05-01T13:01:19.388Z,15.44
2023-05-01T13:02:19.298Z,15.42
2023-05-01T13:03:19.324Z,15.43